Decoded Metar for LESO (DONOSTI in SPAIN) (IATA:EAS) | Meteo·Mobile Aviation Weather
aviador You're here:

LESO Decoded Metar

DONOSTI in SPAIN
Report Time2020-02-18 22:00:00
UTC Time2020-02-18 22:21:20
Flight Rules vfr VFR
Wind190° at 03 kt
W.Decomp.*RWY 22: 2.6 kt HW 1.5 kt LCW
Visibility9999 m
Phenomena:N/A
Clouds:Few 046 Hf
Scattered 057 Hf
Expected CloudBase > 400 ft AGL from Temp-Dew spread
CeilingNone
Temp08°C (ISA -7)
Dew Point07°C (93% RH)
AAT6.2°C
QNH1035 hPa
Density Alt-1,417 ft
Elevation26 ft
Report Wrong Elevation
Raw Report
LESO 182200Z AUTO 19003KT 9999 FEW046 SCT057 08/07 Q1035=

Extra information for LESO:More info

Metar Taf Metar & Taf Last 4 Metars F.Rules Stats Wind Profile Meteogram Temp Stats Airport Information Weather charts Add Link Nearby VenuesMetar ALERT Operation Metar Decoded Social comments